createdAt,value
2022-08-30T00:00:09.189Z,100854.75
2022-08-30T00:04:09.410Z,100772.63
2022-08-30T00:08:12.227Z,100845.94
2022-08-30T00:12:14.097Z,100857.78
2022-08-30T00:16:15.287Z,100851.97
2022-08-30T00:20:19.258Z,100844.66
2022-08-30T00:24:21.694Z,100858.50
2022-08-30T00:28:21.699Z,100803.81
2022-08-30T00:32:22.005Z,100856.41
2022-08-30T00:36:22.234Z,100853.69
2022-08-30T00:40:27.406Z,100854.59
2022-08-30T00:44:27.620Z,100861.16
2022-08-30T00:48:28.180Z,100864.06
2022-08-30T00:52:28.394Z,100862.63
2022-08-30T00:56:32.312Z,100871.34
2022-08-30T01:00:33.488Z,100879.72
2022-08-30T01:04:34.538Z,100873.28
2022-08-30T01:08:34.756Z,100869.69
2022-08-30T01:12:37.160Z,100870.94
2022-08-30T01:16:38.303Z,100834.63
2022-08-30T01:20:45.425Z,100851.34
2022-08-30T01:24:47.992Z,100849.31
2022-08-30T01:28:50.575Z,100860.56
2022-08-30T01:32:51.356Z,100866.00
2022-08-30T01:36:51.816Z,100863.31
2022-08-30T01:40:59.877Z,100856.03
2022-08-30T01:45:00.427Z,100863.28
2022-08-30T01:49:01.368Z,100844.53
2022-08-30T01:53:00.965Z,100857.13
2022-08-30T01:57:03.346Z,100863.13
2022-08-30T02:01:03.546Z,100853.88
2022-08-30T02:05:03.816Z,100870.34
2022-08-30T02:09:05.273Z,100870.50
2022-08-30T02:13:06.859Z,100874.16
2022-08-30T02:17:08.019Z,100870.66
2022-08-30T02:21:09.075Z,100868.09
2022-08-30T02:25:20.455Z,100870.97
2022-08-30T02:29:26.136Z,100873.66
2022-08-30T02:33:27.485Z,100876.56
2022-08-30T02:37:27.818Z,100876.41
2022-08-30T02:41:30.891Z,100887.97
2022-08-30T02:45:36.708Z,100886.16
2022-08-30T02:49:37.390Z,100894.19
2022-08-30T02:53:38.849Z,100885.47
2022-08-30T02:57:40.005Z,100895.69
2022-08-30T03:01:42.448Z,100896.63
2022-08-30T03:05:46.005Z,100890.75
2022-08-30T03:09:47.063Z,100904.78
2022-08-30T03:13:47.513Z,100896.28
2022-08-30T03:17:50.324Z,100909.00
2022-08-30T03:22:01.072Z,100918.84
2022-08-30T03:26:01.647Z,100921.25
2022-08-30T03:30:01.573Z,100923.75
2022-08-30T03:34:10.860Z,100927.66
2022-08-30T03:38:10.707Z,100899.31
2022-08-30T03:42:11.392Z,100946.31
2022-08-30T03:46:20.287Z,100949.91
2022-08-30T03:50:33.623Z,100947.19
2022-08-30T03:55:01.595Z,100961.81
2022-08-30T03:59:02.667Z,100963.84
2022-08-30T04:03:03.137Z,100986.25
2022-08-30T04:07:07.327Z,101031.44
2022-08-30T04:11:08.365Z,101025.53
2022-08-30T04:15:11.019Z,101017.59
2022-08-30T04:19:11.916Z,101035.41
2022-08-30T04:23:27.824Z,101024.53
2022-08-30T04:27:54.363Z,101036.69
2022-08-30T04:32:23.170Z,101038.69
2022-08-30T04:36:52.585Z,101060.75
2022-08-30T04:41:13.705Z,101043.53
2022-08-30T04:45:16.986Z,101041.41
2022-08-30T04:49:17.385Z,101045.28
2022-08-30T04:53:18.275Z,101050.25
2022-08-30T04:57:20.920Z,101057.38
2022-08-30T05:01:23.813Z,101051.00
2022-08-30T05:05:42.441Z,101035.72
2022-08-30T05:09:43.275Z,101062.97
2022-08-30T05:13:46.947Z,101050.06
2022-08-30T05:17:47.860Z,101066.63
2022-08-30T05:21:50.458Z,101044.84
2022-08-30T05:25:51.194Z,101064.34
2022-08-30T05:29:53.623Z,101060.88
2022-08-30T05:33:56.727Z,101055.31
2022-08-30T05:37:59.363Z,101068.22
2022-08-30T05:42:00.433Z,101065.44
2022-08-30T05:46:08.257Z,101052.69
2022-08-30T05:50:15.484Z,101063.50
2022-08-30T05:54:18.936Z,101057.88
2022-08-30T05:58:19.372Z,101049.25
2022-08-30T06:02:23.422Z,101051.09
2022-08-30T06:06:29.039Z,101046.50
2022-08-30T06:10:29.947Z,101016.84
2022-08-30T06:14:33.407Z,101059.06
2022-08-30T06:18:41.425Z,101065.53
2022-08-30T06:22:42.739Z,101060.47
2022-08-30T06:26:53.282Z,101033.38
2022-08-30T06:30:54.108Z,101063.47
2022-08-30T06:34:58.332Z,101059.00
2022-08-30T06:39:01.456Z,101075.16
2022-08-30T06:43:05.967Z,101074.44
2022-08-30T06:47:06.234Z,101057.25
2022-08-30T06:51:10.318Z,101078.03
2022-08-30T06:55:15.060Z,101072.44
2022-08-30T06:59:15.882Z,101072.72
2022-08-30T07:03:24.229Z,101086.75
2022-08-30T07:07:30.604Z,101062.78
2022-08-30T07:11:42.864Z,101073.38
2022-08-30T07:15:47.902Z,101067.94
2022-08-30T07:19:48.506Z,101066.84
2022-08-30T07:23:56.576Z,101069.66
2022-08-30T07:27:57.886Z,101072.75
2022-08-30T07:32:00.005Z,101068.78
2022-08-30T07:36:01.802Z,101060.84
2022-08-30T07:40:10.640Z,101073.06
2022-08-30T07:44:23.135Z,101066.06
2022-08-30T07:48:32.364Z,101068.38
2022-08-30T07:52:34.894Z,101068.03
2022-08-30T07:56:39.881Z,101067.81
2022-08-30T08:00:41.149Z,101072.13
2022-08-30T08:04:43.588Z,101077.06
2022-08-30T08:08:47.652Z,101063.28
2022-08-30T08:12:56.078Z,101078.38
2022-08-30T08:16:59.180Z,101073.09
2022-08-30T08:20:59.679Z,101056.25
2022-08-30T08:24:59.951Z,101074.13
2022-08-30T08:29:04.687Z,101054.00
2022-08-30T08:33:04.420Z,101065.16
2022-08-30T08:37:05.183Z,101067.00
2022-08-30T08:41:10.246Z,101055.00
2022-08-30T08:45:19.971Z,101059.84
2022-08-30T08:49:37.807Z,101063.94
2022-08-30T08:53:47.185Z,101018.66
2022-08-30T08:58:01.309Z,101063.13
2022-08-30T09:02:16.928Z,101055.00
2022-08-30T09:07:04.731Z,101063.13
2022-08-30T09:11:16.456Z,101068.13
2022-08-30T09:15:27.487Z,101066.16
2022-08-30T09:19:42.954Z,101059.16
2022-08-30T09:23:52.071Z,101047.09
2022-08-30T09:27:56.194Z,101044.78
2022-08-30T09:32:25.150Z,101035.25
2022-08-30T09:36:31.375Z,101038.56
2022-08-30T09:40:38.631Z,101031.91
2022-08-30T09:44:43.421Z,101043.94
2022-08-30T09:50:09.779Z,101042.69
2022-08-30T09:55:23.656Z,101027.53
2022-08-30T10:00:58.550Z,101030.72
2022-08-30T10:06:31.417Z,101032.56
2022-08-30T10:10:53.942Z,101018.03
2022-08-30T10:15:21.626Z,101013.94
2022-08-30T10:19:45.715Z,101000.22
2022-08-30T10:24:21.025Z,101004.81
2022-08-30T10:28:35.867Z,101004.97
2022-08-30T10:33:02.701Z,100995.66
2022-08-30T10:37:29.666Z,100993.63
2022-08-30T10:41:50.675Z,100988.91
2022-08-30T10:46:25.011Z,100989.72
2022-08-30T10:50:41.026Z,100986.16
2022-08-30T10:59:37.277Z,100979.34
2022-08-30T11:04:24.515Z,100970.22
2022-08-30T11:24:29.520Z,100936.44
2022-08-30T11:35:20.548Z,100934.59
2022-08-30T11:41:12.114Z,100931.59
2022-08-30T11:52:58.133Z,100920.22
2022-08-30T11:58:29.811Z,100910.72
2022-08-30T12:03:41.404Z,100903.34
2022-08-30T12:14:41.918Z,100889.75
2022-08-30T12:20:18.991Z,100885.72
2022-08-30T12:25:19.297Z,100865.91
2022-08-30T12:31:30.038Z,100871.25
2022-08-30T12:36:17.501Z,100870.34
2022-08-30T12:41:22.522Z,100859.38
2022-08-30T12:45:39.823Z,100851.63
2022-08-30T12:49:46.243Z,100850.66
2022-08-30T12:54:23.136Z,100836.47
2022-08-30T12:58:51.631Z,100815.59
2022-08-30T13:03:02.725Z,100835.25
2022-08-30T13:07:32.909Z,100821.13
2022-08-30T13:16:30.532Z,100815.81
2022-08-30T13:20:36.944Z,100813.31
2022-08-30T13:24:37.900Z,100815.09
2022-08-30T13:28:56.932Z,100811.69
2022-08-30T13:32:56.955Z,100800.03
2022-08-30T13:36:58.910Z,100800.47
2022-08-30T13:40:59.303Z,100783.47
2022-08-30T13:45:02.221Z,100792.53
2022-08-30T13:49:06.515Z,100780.78
2022-08-30T13:53:06.237Z,100781.03
2022-08-30T13:57:07.989Z,100759.06
2022-08-30T14:01:10.213Z,100758.97
2022-08-30T14:05:30.852Z,100746.91
2022-08-30T14:09:31.614Z,100735.72
2022-08-30T14:13:31.722Z,100750.84
2022-08-30T14:17:35.404Z,100756.69
2022-08-30T14:21:37.261Z,100754.38
2022-08-30T14:25:52.797Z,100733.47
2022-08-30T14:29:54.221Z,100740.38
2022-08-30T14:33:59.160Z,100742.38
2022-08-30T14:37:59.604Z,100748.66
2022-08-30T14:42:04.161Z,100730.53
2022-08-30T14:46:07.467Z,100737.91
2022-08-30T14:50:11.056Z,100733.38
2022-08-30T14:54:12.003Z,100707.06
2022-08-30T14:58:16.783Z,100729.53
2022-08-30T15:02:17.170Z,100728.66
2022-08-30T15:06:18.986Z,100734.47
2022-08-30T15:10:21.060Z,100727.56
2022-08-30T15:14:23.510Z,100725.78
2022-08-30T15:18:24.049Z,100733.31
2022-08-30T15:22:26.532Z,100717.91
2022-08-30T15:26:27.449Z,100709.41
2022-08-30T15:30:27.821Z,100719.97
2022-08-30T15:34:28.647Z,100725.50
2022-08-30T15:38:31.667Z,100721.81
2022-08-30T15:42:33.475Z,100702.03
2022-08-30T15:46:35.983Z,100709.38
2022-08-30T15:50:41.378Z,100711.63
2022-08-30T15:54:48.298Z,100699.16
2022-08-30T15:58:50.065Z,100697.13
2022-08-30T16:02:53.549Z,100685.31
2022-08-30T16:06:53.869Z,100692.97
2022-08-30T16:10:56.173Z,100690.44
2022-08-30T16:14:58.478Z,100665.53
2022-08-30T16:18:59.064Z,100683.09
2022-08-30T16:22:59.002Z,100673.56
2022-08-30T16:27:03.802Z,100685.25
2022-08-30T16:31:08.744Z,100678.56
2022-08-30T16:35:14.325Z,100682.34
2022-08-30T16:39:14.803Z,100679.13
2022-08-30T16:43:17.081Z,100676.25
2022-08-30T16:47:18.072Z,100658.06
2022-08-30T16:51:20.502Z,100684.47
2022-08-30T16:55:20.056Z,100702.59
2022-08-30T16:59:24.380Z,100711.50
2022-08-30T17:03:24.165Z,100711.25
2022-08-30T17:07:24.190Z,100715.56
2022-08-30T17:11:23.501Z,100690.84
2022-08-30T17:15:26.732Z,100719.56
2022-08-30T17:19:28.988Z,100709.72
2022-08-30T17:23:30.004Z,100743.56
2022-08-30T17:27:32.332Z,100757.16
2022-08-30T17:31:35.060Z,100758.69
2022-08-30T17:35:34.831Z,100770.50
2022-08-30T17:39:35.125Z,100781.41
2022-08-30T17:43:38.533Z,100782.50
2022-08-30T17:47:41.590Z,100788.78
2022-08-30T17:51:42.563Z,100792.66
2022-08-30T17:55:42.564Z,100792.19
2022-08-30T17:59:42.970Z,100788.31
2022-08-30T18:03:46.509Z,100790.66
2022-08-30T18:07:46.640Z,100809.03
2022-08-30T18:11:48.204Z,100809.66
2022-08-30T18:15:50.740Z,100808.34
2022-08-30T18:19:56.243Z,100825.03
2022-08-30T18:24:00.771Z,100819.19
2022-08-30T18:28:27.831Z,100833.97
2022-08-30T18:32:36.200Z,100832.47
2022-08-30T18:36:46.840Z,100830.81
2022-08-30T18:40:49.890Z,100853.38
2022-08-30T18:45:14.672Z,100860.59
2022-08-30T18:49:32.479Z,100846.25
2022-08-30T18:53:40.097Z,100858.88
2022-08-30T18:58:06.131Z,100853.56
2022-08-30T19:02:14.681Z,100862.13
2022-08-30T19:06:14.886Z,100871.88
2022-08-30T19:10:21.135Z,100873.81
2022-08-30T19:14:20.853Z,100862.97
2022-08-30T19:18:21.386Z,100876.25
2022-08-30T19:26:46.543Z,100883.75
2022-08-30T19:30:46.592Z,100865.22
2022-08-30T19:34:46.935Z,100875.03
2022-08-30T19:38:46.894Z,100880.16
2022-08-30T19:42:50.460Z,100883.44
2022-08-30T19:46:53.566Z,100884.66
2022-08-30T19:50:55.460Z,100883.50
2022-08-30T19:54:58.802Z,100869.38
2022-08-30T19:59:01.197Z,100876.31
2022-08-30T20:03:02.288Z,100845.50
2022-08-30T20:07:02.989Z,100880.88
2022-08-30T20:11:03.408Z,100885.75
2022-08-30T20:15:12.198Z,100842.50
2022-08-30T20:19:14.582Z,100874.59
2022-08-30T20:23:14.707Z,100877.81
2022-08-30T20:24:33.249Z,100884.91
2022-08-30T20:27:19.551Z,100881.16
2022-08-30T20:31:22.217Z,100885.03
2022-08-30T20:35:23.609Z,100880.28
2022-08-30T20:39:24.626Z,100878.34
2022-08-30T20:43:27.588Z,100878.25
2022-08-30T20:47:30.128Z,100891.56
2022-08-30T20:51:30.579Z,100893.41
2022-08-30T20:55:33.569Z,100894.34
2022-08-30T20:59:34.732Z,100880.91
2022-08-30T21:03:37.629Z,100877.69
2022-08-30T21:07:40.421Z,100890.56
2022-08-30T21:11:44.349Z,100893.91
2022-08-30T21:15:46.090Z,100882.28
2022-08-30T21:19:48.995Z,100887.28
2022-08-30T21:23:50.853Z,100900.22
2022-08-30T21:27:53.146Z,100901.47
2022-08-30T21:31:53.685Z,100886.50
2022-08-30T21:36:12.147Z,100898.38
2022-08-30T21:40:14.961Z,100902.22
2022-08-30T21:44:17.717Z,100915.84
2022-08-30T21:48:18.027Z,100911.34
2022-08-30T21:52:20.663Z,100917.25
2022-08-30T21:56:23.243Z,100921.25
2022-08-30T22:00:23.982Z,100909.84
2022-08-30T22:04:26.879Z,100912.41
2022-08-30T22:08:28.857Z,100914.16
2022-08-30T22:12:29.194Z,100913.47
2022-08-30T22:16:30.422Z,100909.53
2022-08-30T22:20:30.866Z,100907.13
2022-08-30T22:24:34.088Z,100910.16
2022-08-30T22:28:34.229Z,100898.31
2022-08-30T22:32:34.447Z,100902.41
2022-08-30T22:36:37.246Z,100892.66
2022-08-30T22:40:45.522Z,100898.44
2022-08-30T22:44:50.243Z,100859.84
2022-08-30T22:48:52.687Z,100900.41
2022-08-30T22:52:52.202Z,100885.28
2022-08-30T22:56:54.698Z,100890.13
2022-08-30T23:00:56.141Z,100885.78
2022-08-30T23:04:56.592Z,100885.44
2022-08-30T23:08:56.944Z,100877.06
2022-08-30T23:13:00.746Z,100880.34
2022-08-30T23:17:01.215Z,100871.09
2022-08-30T23:21:06.027Z,100878.44
2022-08-30T23:25:32.087Z,100876.78
2022-08-30T23:30:00.866Z,100862.41
2022-08-30T23:34:17.412Z,100870.41
2022-08-30T23:38:34.277Z,100881.34
2022-08-30T23:42:49.899Z,100881.75
2022-08-30T23:47:08.557Z,100857.94
2022-08-30T23:51:25.486Z,100878.88
2022-08-30T23:55:42.503Z,100867.63
2022-08-30T23:59:59.131Z,100869.63
